Time;durP1;ratioP1;P1;durP2;ratioP2;P2;SDS_P1;SDS_P2;PMS_P1;PMS_P2;Temp;Humidity;BMP_temperature;BMP_pressure;BME280_temperature;BME280_humidity;BME280_pressure;Samples;Min_cycle;Max_cycle;Signal;HPM_P1;HPM_P2
2022/03/11 00:01:28;;;;;;;16.35;8.05;;;;;;;-1.02;47.63;102756.81;5076221;28;20039;-64
2022/03/11 00:03:55;;;;;;;20.40;8.30;;;;;;;-1.07;47.82;102755.66;5075950;28;20024;-63
2022/03/11 00:06:20;;;;;;;19.30;8.23;;;;;;;-1.08;47.96;102752.19;5076590;28;20040;-63
2022/03/11 00:08:45;;;;;;;27.83;10.75;;;;;;;-1.11;47.81;102749.38;5075097;28;20198;-64
2022/03/11 00:11:11;;;;;;;21.88;8.32;;;;;;;-1.15;48.21;102752.56;5076182;28;20029;-64
2022/03/11 00:13:36;;;;;;;49.80;18.70;;;;;;;-1.21;48.15;102751.28;5076195;28;20459;-64
2022/03/11 00:16:02;;;;;;;32.08;12.98;;;;;;;-1.23;48.32;102750.31;5076573;28;20041;-64
2022/03/11 00:18:27;;;;;;;18.48;8.52;;;;;;;-1.26;48.06;102744.13;5076444;28;20046;-64
2022/03/11 00:20:52;;;;;;;20.42;8.27;;;;;;;-1.31;48.20;102755.84;5076126;28;20526;-64
2022/03/11 00:23:18;;;;;;;17.60;6.63;;;;;;;-1.38;48.63;102753.66;5076062;28;20036;-64
2022/03/11 00:25:43;;;;;;;12.80;7.15;;;;;;;-1.44;48.67;102753.25;5075845;28;20060;-64
2022/03/11 00:28:09;;;;;;;14.10;6.22;;;;;;;-1.46;48.73;102747.13;5075707;28;20040;-64
2022/03/11 00:30:34;;;;;;;12.32;5.78;;;;;;;-1.46;48.67;102751.41;5074441;28;20106;-64
2022/03/11 00:33:00;;;;;;;15.18;6.78;;;;;;;-1.47;48.86;102747.94;5076183;28;20067;-64
2022/03/11 00:35:26;;;;;;;12.40;6.43;;;;;;;-1.51;48.66;102744.25;5074640;28;20050;-64
2022/03/11 00:37:51;;;;;;;14.57;5.85;;;;;;;-1.53;49.01;102739.78;5075871;28;20473;-64
2022/03/11 00:40:17;;;;;;;18.05;7.25;;;;;;;-1.54;48.92;102743.16;5074592;28;20455;-64
2022/03/11 00:42:43;;;;;;;16.90;6.20;;;;;;;-1.56;49.30;102737.88;5075408;28;20458;-64
2022/03/11 00:45:10;;;;;;;16.17;6.50;;;;;;;-1.58;49.46;102736.03;5074369;28;20036;-64
2022/03/11 00:47:35;;;;;;;16.08;7.03;;;;;;;-1.58;49.43;102733.44;5074309;28;20068;-64
2022/03/11 00:50:01;;;;;;;13.98;6.80;;;;;;;-1.59;49.44;102734.25;5075566;28;20067;-64
2022/03/11 00:52:28;;;;;;;18.85;7.50;;;;;;;-1.61;49.37;102734.13;5075441;28;20080;-64
2022/03/11 00:54:53;;;;;;;14.48;7.05;;;;;;;-1.58;49.44;102734.34;5074431;28;20036;-64
2022/03/11 00:57:19;;;;;;;16.52;7.90;;;;;;;-1.55;49.47;102734.53;5075187;28;20033;-64
2022/03/11 00:59:44;;;;;;;14.50;6.43;;;;;;;-1.56;49.36;102742.16;5075844;28;20357;-64
2022/03/11 01:02:10;;;;;;;15.02;6.38;;;;;;;-1.57;49.41;102735.22;5075527;28;20037;-64
2022/03/11 01:04:35;;;;;;;16.05;6.00;;;;;;;-1.57;49.19;102730.94;5075208;28;20115;-64
2022/03/11 01:07:01;;;;;;;13.45;5.90;;;;;;;-1.55;49.33;102746.53;5075259;28;20025;-64
2022/03/11 01:09:26;;;;;;;16.20;6.90;;;;;;;-1.58;49.24;102734.34;5074843;28;20043;-64
2022/03/11 01:11:52;;;;;;;14.13;6.40;;;;;;;-1.57;49.42;102741.25;5074940;28;20120;-63
2022/03/11 01:14:17;;;;;;;15.45;5.85;;;;;;;-1.59;49.58;102741.97;5075062;28;20521;-64
2022/03/11 01:16:42;;;;;;;14.13;6.15;;;;;;;-1.62;49.41;102734.91;5075141;28;20383;-64
2022/03/11 01:19:08;;;;;;;14.70;6.72;;;;;;;-1.64;49.39;102741.66;5073789;28;20579;-64
2022/03/11 01:21:33;;;;;;;13.27;6.30;;;;;;;-1.66;49.73;102745.81;5074798;28;20123;-64
2022/03/11 01:23:59;;;;;;;15.30;6.35;;;;;;;-1.66;49.76;102739.78;5074455;28;20036;-64
2022/03/11 01:26:24;;;;;;;18.10;7.55;;;;;;;-1.70;49.80;102737.78;5072732;28;20082;-64
2022/03/11 01:28:50;;;;;;;18.52;7.13;;;;;;;-1.73;50.12;102738.47;5074241;28;20135;-64
2022/03/11 01:31:17;;;;;;;14.20;6.35;;;;;;;-1.71;49.93;102744.66;5074106;28;20033;-64
2022/03/11 01:33:44;;;;;;;15.05;6.15;;;;;;;-1.70;49.83;102743.84;5072864;28;20048;-64
2022/03/11 01:36:11;;;;;;;16.65;7.38;;;;;;;-1.74;50.10;102732.44;5056858;28;20024;-64
2022/03/11 01:38:37;;;;;;;17.35;6.85;;;;;;;-1.71;50.01;102725.72;5056473;28;20131;-64
2022/03/11 01:41:03;;;;;;;20.73;8.00;;;;;;;-1.72;50.19;102729.94;5072996;28;20032;-64
2022/03/11 01:43:29;;;;;;;20.80;7.40;;;;;;;-1.75;50.11;102728.06;5074453;28;20036;-64
2022/03/11 01:45:56;;;;;;;23.98;8.77;;;;;;;-1.74;50.11;102727.28;5074276;28;20162;-64
2022/03/11 01:48:22;;;;;;;21.35;9.05;;;;;;;-1.74;50.27;102722.13;5073118;28;20177;-64
2022/03/11 01:50:48;;;;;;;15.00;6.70;;;;;;;-1.76;50.23;102717.66;5074356;28;20438;-64
2022/03/11 01:53:14;;;;;;;13.95;6.90;;;;;;;-1.71;50.28;102720.56;5072963;28;20027;-64
2022/03/11 01:55:40;;;;;;;16.23;7.28;;;;;;;-1.74;50.07;102716.97;5056335;28;20496;-64
2022/03/11 01:58:07;;;;;;;11.82;5.47;;;;;;;-1.71;50.42;102710.25;5074212;28;20032;-64
2022/03/11 02:00:40;;;;;;;12.95;5.47;;;;;;;-1.73;50.04;102710.13;5056307;28;20036;-64
2022/03/11 02:03:07;;;;;;;14.27;6.80;;;;;;;-1.71;50.38;102718.88;5057089;28;20043;-64
2022/03/11 02:05:33;;;;;;;11.95;5.55;;;;;;;-1.73;50.26;102712.69;5072807;28;20056;-64
2022/03/11 02:08:01;;;;;;;12.20;6.45;;;;;;;-1.75;50.38;102710.03;5074050;28;20059;-64
2022/03/11 02:10:29;;;;;;;13.65;6.10;;;;;;;-1.74;50.30;102711.81;5072759;28;20111;-64
2022/03/11 02:12:55;;;;;;;13.05;5.70;;;;;;;-1.75;50.25;102711.72;5072687;28;20037;-64
2022/03/11 02:15:20;;;;;;;15.40;6.13;;;;;;;-1.76;50.26;102705.66;5074026;28;20460;-64
2022/03/11 02:17:46;;;;;;;15.30;6.95;;;;;;;-1.78;50.52;102709.81;5073970;28;20119;-64
2022/03/11 02:20:11;;;;;;;16.42;7.93;;;;;;;-1.80;50.54;102706.25;5073577;28;20052;-64
2022/03/11 02:22:40;;;;;;;14.75;6.88;;;;;;;-1.81;50.71;102708.72;5073822;28;20028;-64
2022/03/11 02:25:07;;;;;;;13.40;7.13;;;;;;;-1.86;50.73;102705.84;5072579;28;20464;-64
2022/03/11 02:27:37;;;;;;;11.18;5.78;;;;;;;-1.93;50.75;102706.25;5072468;28;20024;-64
2022/03/11 02:30:20;;;;;;;14.57;6.78;;;;;;;-1.94;50.67;102709.63;5055831;28;20514;-64
2022/03/11 02:32:46;;;;;;;15.70;7.38;;;;;;;-2.03;50.89;102709.00;5072270;28;20075;-64
2022/03/11 02:35:13;;;;;;;13.02;5.90;;;;;;;-2.10;50.95;102717.13;5055346;28;20041;-64
2022/03/11 02:37:38;;;;;;;14.57;6.57;;;;;;;-2.14;51.39;102713.44;5055294;28;20032;-64
2022/03/11 02:40:05;;;;;;;15.68;7.22;;;;;;;-2.17;51.51;102717.50;5072062;28;20028;-64
2022/03/11 02:42:31;;;;;;;11.68;5.88;;;;;;;-2.20;51.68;102712.13;5071982;28;20036;-64
2022/03/11 02:45:02;;;;;;;11.57;5.55;;;;;;;-2.24;51.67;102711.91;5073149;28;20039;-64
2022/03/11 02:47:27;;;;;;;11.10;5.70;;;;;;;-2.29;51.78;102708.13;5072050;28;20028;-64
2022/03/11 02:49:53;;;;;;;12.35;6.55;;;;;;;-2.28;51.88;102704.78;5071776;28;20516;-64
2022/03/11 02:52:19;;;;;;;12.70;5.53;;;;;;;-2.30;51.86;102710.63;5072665;28;20049;-64
2022/03/11 02:54:44;;;;;;;13.13;6.10;;;;;;;-2.35;51.87;102718.03;5073345;28;20051;-64
2022/03/11 02:57:10;;;;;;;12.73;6.05;;;;;;;-2.38;51.98;102717.84;5073062;28;20037;-64
2022/03/11 02:59:35;;;;;;;11.82;5.47;;;;;;;-2.40;52.21;102718.50;5073130;28;20036;-64
2022/03/11 03:02:00;;;;;;;15.35;7.10;;;;;;;-2.42;52.24;102722.69;5073280;28;20166;-64
2022/03/11 03:04:26;;;;;;;15.18;7.32;;;;;;;-2.43;52.35;102721.78;5072995;28;20040;-64
2022/03/11 03:06:52;;;;;;;11.70;5.68;;;;;;;-2.46;52.28;102724.16;5073003;28;20036;-64
2022/03/11 03:09:17;;;;;;;11.30;5.28;;;;;;;-2.49;52.36;102716.19;5071497;28;20094;-64
2022/03/11 03:11:42;;;;;;;15.27;6.13;;;;;;;-2.53;52.72;102725.41;5072752;28;20119;-64
2022/03/11 03:14:08;;;;;;;11.18;5.57;;;;;;;-2.51;52.55;102722.94;5072933;28;20104;-64
2022/03/11 03:16:33;;;;;;;24.65;9.13;;;;;;;-2.50;52.69;102720.47;5072916;28;20074;-64
2022/03/11 03:18:59;;;;;;;51.53;17.67;;;;;;;-2.50;52.69;102722.16;5072802;28;20032;-64
2022/03/11 03:21:26;;;;;;;43.58;14.63;;;;;;;-2.50;52.51;102719.56;5072795;28;20123;-64
2022/03/11 03:23:52;;;;;;;51.55;19.48;;;;;;;-2.52;52.79;102713.41;5071719;28;20133;-64
2022/03/11 03:26:18;;;;;;;48.90;17.13;;;;;;;-2.56;52.81;102717.44;5072830;28;20031;-64
2022/03/11 03:28:44;;;;;;;40.78;16.58;;;;;;;-2.57;52.87;102714.78;5072632;28;20028;-64
2022/03/11 03:31:09;;;;;;;39.40;16.70;;;;;;;-2.59;52.95;102712.13;5073552;28;20419;-65
2022/03/11 03:33:34;;;;;;;34.67;14.43;;;;;;;-2.61;53.18;102712.78;5076268;28;20476;-65
2022/03/11 03:36:00;;;;;;;28.48;13.43;;;;;;;-2.60;53.11;102712.00;5076520;28;20337;-65
2022/03/11 03:38:25;;;;;;;45.00;17.60;;;;;;;-2.61;53.15;102723.97;5075040;28;20136;-65
2022/03/11 03:40:51;;;;;;;68.22;21.08;;;;;;;-2.66;53.29;102715.06;5076514;28;20028;-64
2022/03/11 03:43:16;;;;;;;57.10;19.52;;;;;;;-2.63;53.10;102727.22;5076370;28;20393;-65
2022/03/11 03:45:42;;;;;;;46.95;18.20;;;;;;;-2.61;53.37;102720.50;5076331;28;20112;-65
2022/03/11 03:48:07;;;;;;;58.70;22.42;;;;;;;-2.60;53.37;102722.28;5075943;28;20032;-65
2022/03/11 03:50:33;;;;;;;86.18;32.75;;;;;;;-2.59;53.42;102717.25;5074699;28;20078;-64
2022/03/11 03:52:58;;;;;;;55.85;21.90;;;;;;;-2.61;53.23;102715.38;5076429;28;20075;-65
2022/03/11 03:55:24;;;;;;;56.95;21.90;;;;;;;-2.60;53.35;102714.56;5076402;28;20037;-64
2022/03/11 03:57:49;;;;;;;84.47;28.90;;;;;;;-2.57;53.14;102714.78;5076076;28;20484;-64
2022/03/11 04:00:15;;;;;;;55.42;21.38;;;;;;;-2.54;53.22;102709.84;5076043;28;20051;-65
2022/03/11 04:02:47;;;;;;;48.58;18.27;;;;;;;-2.52;53.28;102713.41;5075833;28;20036;-64
2022/03/11 04:05:13;;;;;;;36.85;14.30;;;;;;;-2.50;53.04;102711.84;5058028;28;20063;-65
2022/03/11 04:07:43;;;;;;;29.35;11.85;;;;;;;-2.52;53.07;102709.16;5057994;28;20479;-65
2022/03/11 04:10:11;;;;;;;33.40;13.57;;;;;;;-2.51;53.16;102710.06;5057977;28;20217;-64
2022/03/11 04:12:36;;;;;;;30.40;10.52;;;;;;;-2.48;53.23;102715.41;5074845;28;20089;-65
2022/03/11 04:15:02;;;;;;;29.13;11.27;;;;;;;-2.44;53.25;102711.34;5074950;28;20120;-65
2022/03/11 04:17:28;;;;;;;37.88;13.05;;;;;;;-2.42;53.31;102710.69;5058088;28;20490;-65
2022/03/11 04:19:53;;;;;;;38.80;13.57;;;;;;;-2.42;53.15;102715.84;5075915;28;20033;-64
2022/03/11 04:22:19;;;;;;;29.08;10.85;;;;;;;-2.42;53.34;102720.09;5076258;28;20033;-64
2022/03/11 04:24:44;;;;;;;19.27;7.75;;;;;;;-2.40;53.21;102715.94;5076073;28;20460;-64
2022/03/11 04:27:10;;;;;;;18.13;8.00;;;;;;;-2.41;53.34;102722.75;5075914;28;20036;-64
2022/03/11 04:29:37;;;;;;;27.95;11.05;;;;;;;-2.41;53.28;102717.63;5075724;28;20395;-65
2022/03/11 04:32:03;;;;;;;33.75;12.45;;;;;;;-2.45;53.26;102720.78;5075295;28;20040;-64
2022/03/11 04:34:28;;;;;;;23.48;9.35;;;;;;;-2.43;53.27;102721.78;5058068;28;20050;-64
2022/03/11 04:36:56;;;;;;;19.40;7.43;;;;;;;-2.47;53.65;102732.66;5075986;28;20119;-64
2022/03/11 04:39:23;;;;;;;14.68;6.80;;;;;;;-2.46;53.59;102731.88;5074500;28;20081;-64
2022/03/11 04:41:49;;;;;;;13.90;6.70;;;;;;;-2.48;53.57;102734.31;5074386;28;20032;-64
2022/03/11 04:44:14;;;;;;;14.07;7.22;;;;;;;-2.51;53.62;102730.66;5075003;28;20044;-63
2022/03/11 04:46:40;;;;;;;16.40;8.13;;;;;;;-2.53;53.73;102734.81;5075612;28;20039;-64
2022/03/11 04:49:06;;;;;;;18.23;9.15;;;;;;;-2.52;53.64;102734.00;5075594;28;20407;-64
2022/03/11 04:51:31;;;;;;;20.63;10.90;;;;;;;-2.64;54.07;102733.16;5075257;28;20147;-64
2022/03/11 04:53:58;;;;;;;20.55;8.52;;;;;;;-2.62;54.06;102732.50;5075751;28;20082;-64
2022/03/11 04:56:24;;;;;;;30.73;12.18;;;;;;;-2.69;54.12;102739.69;5075296;28;20038;-64
2022/03/11 04:58:50;;;;;;;38.97;16.10;;;;;;;-2.80;54.44;102738.91;5075317;28;20032;-64
2022/03/11 05:01:15;;;;;;;33.00;12.07;;;;;;;-2.88;54.54;102733.22;5075232;28;20518;-64
2022/03/11 05:03:40;;;;;;;26.73;12.57;;;;;;;-2.93;54.94;102733.72;5073916;28;20383;-64
2022/03/11 05:06:06;;;;;;;28.08;13.48;;;;;;;-2.98;55.08;102738.53;5073842;28;20063;-64
2022/03/11 05:08:31;;;;;;;25.42;11.43;;;;;;;-3.01;55.13;102738.31;5074308;28;20032;-64
2022/03/11 05:10:57;;;;;;;32.53;13.23;;;;;;;-3.05;55.04;102733.72;5075191;28;20032;-64
2022/03/11 05:13:22;;;;;;;29.05;11.63;;;;;;;-3.11;55.43;102735.84;5073607;28;20418;-64
2022/03/11 05:15:48;;;;;;;30.33;10.98;;;;;;;-3.12;55.46;102731.50;5074737;28;20037;-64
2022/03/11 05:18:13;;;;;;;29.17;11.05;;;;;;;-3.10;55.65;102729.94;5075257;28;20024;-64
2022/03/11 05:20:39;;;;;;;37.05;12.80;;;;;;;-3.13;55.63;102727.16;5074981;28;20044;-64
2022/03/11 05:23:04;;;;;;;26.63;10.95;;;;;;;-3.12;55.62;102731.50;5074953;28;20120;-64
2022/03/11 05:25:30;;;;;;;29.00;11.05;;;;;;;-3.07;55.57;102725.00;5074796;28;20128;-64
2022/03/11 05:27:55;;;;;;;44.00;17.35;;;;;;;-3.01;55.32;102725.44;5074788;28;20115;-64
2022/03/11 05:30:21;;;;;;;34.88;14.60;;;;;;;-3.00;55.42;102730.69;5075069;28;20090;-64
2022/03/11 05:32:46;;;;;;;38.58;15.77;;;;;;;-3.00;55.11;102728.13;5074565;28;20032;-64
2022/03/11 05:35:14;;;;;;;52.72;20.95;;;;;;;-3.00;55.39;102734.94;5074627;28;20044;-64
2022/03/11 05:37:39;;;;;;;32.40;14.50;;;;;;;-2.98;55.40;102725.66;5073471;28;20484;-64
2022/03/11 05:40:05;;;;;;;34.33;14.77;;;;;;;-2.89;55.31;102720.28;5074460;28;20028;-63
2022/03/11 05:42:31;;;;;;;28.33;13.60;;;;;;;-2.82;55.36;102728.53;5072884;28;20064;-63
2022/03/11 05:44:56;;;;;;;38.58;16.05;;;;;;;-2.75;55.38;102729.88;5074248;28;20059;-64
2022/03/11 05:47:22;;;;;;;37.13;17.15;;;;;;;-2.66;55.41;102729.59;5072673;28;20545;-63
2022/03/11 05:49:48;;;;;;;39.95;15.70;;;;;;;-2.56;55.04;102729.44;5074067;28;20140;-64
2022/03/11 05:52:13;;;;;;;35.55;16.15;;;;;;;-2.43;55.01;102721.78;5072673;28;20048;-64
2022/03/11 05:54:39;;;;;;;35.65;14.30;;;;;;;-2.33;54.89;102729.31;5072824;28;20038;-64
2022/03/11 05:57:04;;;;;;;31.00;13.20;;;;;;;-2.17;54.39;102725.22;5072794;28;20029;-63
2022/03/11 05:59:31;;;;;;;28.42;11.88;;;;;;;-2.03;53.84;102733.09;5073601;28;20089;-64
2022/03/11 06:01:57;;;;;;;25.80;12.27;;;;;;;-1.88;53.43;102729.72;5073113;28;20043;-63
2022/03/11 06:04:23;;;;;;;28.23;12.90;;;;;;;-1.76;53.23;102736.56;5072440;28;20032;-64
2022/03/11 06:06:48;;;;;;;24.05;11.10;;;;;;;-1.61;52.50;102740.97;5073637;28;20032;-64
2022/03/11 06:09:14;;;;;;;26.42;12.80;;;;;;;-1.45;52.40;102745.44;5073917;28;20086;-64
2022/03/11 06:11:39;;;;;;;30.42;12.63;;;;;;;-1.33;52.07;102747.13;5073804;28;20036;-64
2022/03/11 06:14:06;;;;;;;42.20;16.58;;;;;;;-1.20;51.61;102745.31;5073193;28;20036;-64
2022/03/11 06:16:31;;;;;;;39.28;17.15;;;;;;;-1.09;51.34;102749.47;5056024;28;20032;-63
2022/03/11 06:18:57;;;;;;;33.58;13.00;;;;;;;-0.98;51.35;102756.22;5073694;28;20090;-63
2022/03/11 06:21:22;;;;;;;29.67;13.43;;;;;;;-0.90;51.00;102759.28;5072763;28;20453;-63
2022/03/11 06:23:47;;;;;;;29.05;12.38;;;;;;;-0.82;50.94;102753.78;5073493;28;20044;-62
2022/03/11 06:26:13;;;;;;;31.92;13.40;;;;;;;-0.71;50.70;102751.88;5071078;28;20033;-63
2022/03/11 06:28:38;;;;;;;37.70;16.20;;;;;;;-0.62;50.57;102759.31;5073077;28;20043;-63
2022/03/11 06:31:04;;;;;;;24.98;10.07;;;;;;;-0.50;50.10;102760.94;5073382;28;20033;-63
2022/03/11 06:33:30;;;;;;;40.95;16.50;;;;;;;-0.38;49.64;102771.13;5072373;28;20131;-63
2022/03/11 06:35:55;;;;;;;34.20;15.20;;;;;;;-0.28;49.60;102760.56;5072909;28;20037;-63
2022/03/11 06:38:21;;;;;;;30.70;13.85;;;;;;;-0.19;49.18;102759.34;5072406;28;20032;-63
2022/03/11 06:40:49;;;;;;;26.08;12.18;;;;;;;-0.10;49.05;102759.88;5073182;28;20037;-63
2022/03/11 06:43:15;;;;;;;24.33;11.02;;;;;;;0.00;48.64;102757.06;5073417;28;20036;-64
2022/03/11 06:45:40;;;;;;;25.13;11.45;;;;;;;0.07;48.49;102763.47;5064898;28;20039;-64
2022/03/11 06:48:05;;;;;;;45.25;18.58;;;;;;;0.20;48.40;102753.94;5076348;28;20040;-64
2022/03/11 06:50:31;;;;;;;30.70;13.15;;;;;;;0.27;48.29;102754.28;5076986;28;20073;-64
2022/03/11 06:52:56;;;;;;;25.65;11.95;;;;;;;0.35;48.03;102764.25;5092735;28;20036;-64
2022/03/11 06:55:22;;;;;;;24.88;10.85;;;;;;;0.47;47.70;102764.06;5081846;28;20385;-63
2022/03/11 06:57:48;;;;;;;21.95;10.98;;;;;;;0.57;47.20;102768.09;5068167;28;20072;-64
2022/03/11 07:00:14;;;;;;;30.60;12.07;;;;;;;0.66;46.80;102755.66;5068243;28;20388;-64
2022/03/11 07:02:39;;;;;;;33.03;12.98;;;;;;;0.75;46.51;102758.78;5073229;28;20037;-64
2022/03/11 07:05:06;;;;;;;26.90;12.20;;;;;;;0.87;46.18;102767.22;5073431;28;20036;-64
2022/03/11 07:07:33;;;;;;;19.77;9.80;;;;;;;0.95;45.85;102758.19;5076529;28;20028;-63
2022/03/11 07:10:09;;;;;;;18.70;9.63;;;;;;;1.07;45.34;102757.97;5072339;28;20393;-63
2022/03/11 07:12:35;;;;;;;17.30;7.38;;;;;;;1.16;45.06;102758.50;5071242;28;20074;-66
2022/03/11 07:15:01;;;;;;;23.45;10.00;;;;;;;1.26;44.69;102758.97;5068420;28;20064;-64
2022/03/11 07:17:27;;;;;;;17.85;8.38;;;;;;;1.29;44.27;102767.81;5056736;28;20033;-63
2022/03/11 07:19:53;;;;;;;12.73;6.95;;;;;;;1.33;44.04;102766.28;5058831;28;20123;-64
2022/03/11 07:22:18;;;;;;;18.95;7.60;;;;;;;1.42;43.92;102771.94;5076575;28;20472;-63
2022/03/11 07:24:45;;;;;;;21.23;8.95;;;;;;;1.46;43.38;102769.59;5073353;28;22069;-64
2022/03/11 07:27:11;;;;;;;21.65;9.55;;;;;;;1.56;43.45;102760.63;5074499;28;20025;-64
2022/03/11 07:29:36;;;;;;;17.40;7.90;;;;;;;1.68;43.06;102765.56;5058333;28;20036;-64
2022/03/11 07:32:02;;;;;;;15.35;8.15;;;;;;;1.77;43.01;102765.16;5074046;28;20025;-63
2022/03/11 07:34:28;;;;;;;15.57;8.82;;;;;;;1.87;42.44;102757.03;5058454;28;20056;-64
2022/03/11 07:36:53;;;;;;;13.13;7.25;;;;;;;1.92;42.15;102764.25;5076564;28;20056;-64
2022/03/11 07:39:19;;;;;;;15.15;6.47;;;;;;;2.00;42.09;102763.75;5075915;28;20067;-64
2022/03/11 07:41:44;;;;;;;12.93;6.93;;;;;;;2.03;41.86;102764.78;5076482;28;20029;-64
2022/03/11 07:44:10;;;;;;;21.98;9.23;;;;;;;2.09;41.74;102759.91;5075365;28;20058;-65
2022/03/11 07:46:36;;;;;;;97.35;38.50;;;;;;;2.16;41.91;102759.44;5076503;28;20384;-64
2022/03/11 07:49:02;;;;;;;70.30;31.45;;;;;;;2.25;41.41;102761.59;5075165;28;20040;-64
2022/03/11 07:51:30;;;;;;;37.97;18.60;;;;;;;2.31;41.17;102754.09;5073853;28;20384;-64
2022/03/11 07:53:56;;;;;;;101.35;45.50;;;;;;;2.41;41.17;102758.94;5075541;28;20395;-64
2022/03/11 07:56:21;;;;;;;122.45;52.83;;;;;;;2.52;41.13;102756.88;5075526;28;20047;-65
2022/03/11 07:58:47;;;;;;;42.65;22.33;;;;;;;2.59;40.96;102758.03;5076320;28;20066;-64
2022/03/11 08:01:13;;;;;;;25.80;12.82;;;;;;;2.63;40.52;102755.72;5076276;28;20028;-61
2022/03/11 08:03:40;;;;;;;29.80;15.30;;;;;;;2.67;40.13;102752.44;5074966;28;20028;-64
2022/03/11 08:06:08;;;;;;;24.88;11.95;;;;;;;2.74;40.07;102751.00;5074786;28;20032;-63
2022/03/11 08:08:34;;;;;;;19.60;9.88;;;;;;;2.83;39.96;102745.34;5075740;28;20426;-64
2022/03/11 08:11:00;;;;;;;21.95;11.73;;;;;;;2.88;39.98;102751.69;5058256;28;20040;-63
2022/03/11 08:13:26;;;;;;;17.23;9.43;;;;;;;2.91;39.35;102746.59;5075313;28;20033;-63
2022/03/11 08:15:51;;;;;;;12.75;7.10;;;;;;;2.99;39.55;102744.38;5074228;28;20038;-63
2022/03/11 08:18:17;;;;;;;14.13;6.90;;;;;;;3.08;39.43;102753.50;5074880;28;20083;-64
2022/03/11 08:20:42;;;;;;;12.55;7.35;;;;;;;3.15;39.13;102755.59;5075836;28;20395;-63
2022/03/11 08:23:08;;;;;;;12.13;6.93;;;;;;;3.20;38.85;102748.88;5075695;28;20476;-64
2022/03/11 08:25:34;;;;;;;24.58;10.15;;;;;;;3.30;38.70;102746.69;5075386;28;20439;-63
2022/03/11 08:28:00;;;;;;;28.10;9.48;;;;;;;3.37;38.40;102741.84;5075599;28;20371;-64
2022/03/11 08:30:26;;;;;;;14.40;7.65;;;;;;;3.41;37.69;102737.69;5072553;28;20028;-63
2022/03/11 08:32:52;;;;;;;14.23;7.07;;;;;;;3.50;37.79;102740.69;5074882;28;20025;-63
2022/03/11 08:35:19;;;;;;;19.92;8.98;;;;;;;3.64;37.67;102744.81;5073207;28;20539;-63
2022/03/11 08:37:45;;;;;;;13.48;7.15;;;;;;;3.71;37.70;102743.38;5074252;28;20028;-64
2022/03/11 08:40:12;;;;;;;17.60;8.00;;;;;;;3.78;37.28;102740.19;5057680;28;20078;-63
2022/03/11 08:42:38;;;;;;;14.70;6.68;;;;;;;3.85;36.88;102733.56;5057511;28;20037;-63
2022/03/11 08:45:05;;;;;;;14.38;7.05;;;;;;;3.93;36.99;102732.16;5057555;28;20048;-63
2022/03/11 08:47:31;;;;;;;10.55;6.15;;;;;;;3.96;36.57;102732.31;5074063;28;20071;-63
2022/03/11 08:49:57;;;;;;;12.75;6.97;;;;;;;3.98;36.35;102734.97;5075305;28;20052;-63
2022/03/11 08:52:24;;;;;;;10.55;6.28;;;;;;;4.02;36.39;102732.56;5074773;28;20404;-64
2022/03/11 08:54:51;;;;;;;13.32;7.80;;;;;;;4.06;35.67;102729.25;5074416;28;20117;-63
2022/03/11 08:57:16;;;;;;;13.23;6.35;;;;;;;4.11;35.15;102739.84;5074155;28;20032;-63
2022/03/11 08:59:41;;;;;;;11.20;5.60;;;;;;;4.14;35.64;102733.06;5075193;28;20036;-63
2022/03/11 09:02:08;;;;;;;11.55;5.82;;;;;;;4.20;35.29;102733.34;5075228;28;20173;-63
2022/03/11 09:04:34;;;;;;;14.95;6.82;;;;;;;4.22;34.63;102732.50;5075131;28;20060;-64
2022/03/11 09:07:00;;;;;;;14.10;6.47;;;;;;;4.30;35.04;102729.38;5056869;28;20465;-63
2022/03/11 09:09:25;;;;;;;10.25;5.80;;;;;;;4.34;34.86;102730.41;5074564;28;20038;-64
2022/03/11 09:11:50;;;;;;;9.00;5.13;;;;;;;4.41;34.33;102724.63;5073686;28;20415;-63
2022/03/11 09:14:18;;;;;;;8.35;4.88;;;;;;;4.42;34.31;102723.81;5075035;28;20135;-64
2022/03/11 09:16:43;;;;;;;9.55;5.22;;;;;;;4.50;34.59;102730.22;5074783;28;20032;-63
2022/03/11 09:19:09;;;;;;;11.18;5.50;;;;;;;4.58;34.45;102725.31;5074635;28;20047;-63
2022/03/11 09:21:34;;;;;;;8.80;5.18;;;;;;;4.59;34.04;102725.41;5074611;28;20090;-63
2022/03/11 09:24:00;;;;;;;11.68;5.13;;;;;;;4.59;34.00;102717.59;5074374;28;20174;-63
2022/03/11 09:26:26;;;;;;;10.30;5.22;;;;;;;4.68;33.96;102717.94;5074520;28;20035;-63
2022/03/11 09:28:51;;;;;;;9.10;5.05;;;;;;;4.77;33.94;102712.19;5074441;28;20119;-63
2022/03/11 09:31:16;;;;;;;12.25;5.47;;;;;;;4.85;33.84;102717.72;5074143;28;20059;-63
2022/03/11 09:33:42;;;;;;;9.50;5.22;;;;;;;4.93;33.54;102708.47;5073486;28;20040;-63
2022/03/11 09:36:08;;;;;;;11.32;6.63;;;;;;;4.97;33.09;102710.38;5074201;28;20045;-63
2022/03/11 09:38:37;;;;;;;10.65;5.78;;;;;;;5.01;32.87;102704.44;5073074;28;20047;-64
2022/03/11 09:41:04;;;;;;;13.23;6.30;;;;;;;5.06;33.12;102705.50;5073030;28;20089;-63
2022/03/11 09:43:30;;;;;;;15.00;7.45;;;;;;;5.15;32.86;102711.06;5072988;28;20047;-63
2022/03/11 09:45:58;;;;;;;12.60;6.57;;;;;;;5.17;32.63;102718.94;5072851;28;20450;-64
2022/03/11 09:48:24;;;;;;;8.82;5.47;;;;;;;5.24;32.47;102709.66;5072691;28;20020;-64
2022/03/11 09:50:50;;;;;;;9.15;5.63;;;;;;;5.28;32.37;102706.31;5056153;28;20048;-63
2022/03/11 09:53:15;;;;;;;11.15;6.90;;;;;;;5.35;32.16;102704.00;5073663;28;20041;-63
2022/03/11 09:55:42;;;;;;;18.95;7.30;;;;;;;5.35;31.48;102710.94;5073836;28;20086;-63
2022/03/11 09:58:07;;;;;;;13.57;6.93;;;;;;;5.42;31.66;102710.31;5072907;28;20067;-63
2022/03/11 10:00:33;;;;;;;11.60;5.28;;;;;;;5.51;31.43;102705.44;5073929;28;20052;-63
2022/03/11 10:02:58;;;;;;;10.82;5.25;;;;;;;5.55;31.44;102712.53;5073973;28;20472;-63
2022/03/11 10:05:24;;;;;;;17.00;6.53;;;;;;;5.59;31.19;102711.81;5074060;28;20116;-63
2022/03/11 10:08:05;;;;;;;10.88;5.35;;;;;;;5.59;29.35;102708.34;5073935;28;20035;-63
2022/03/11 10:10:30;;;;;;;11.23;5.82;;;;;;;5.65;31.16;102709.41;5073688;28;20483;-63
2022/03/11 10:12:56;;;;;;;9.80;4.60;;;;;;;5.66;30.94;102705.09;5073655;28;20063;-63
2022/03/11 10:15:27;;;;;;;12.85;6.18;;;;;;;5.75;30.17;102709.75;5073866;28;20028;-63
2022/03/11 10:17:53;;;;;;;12.10;5.13;;;;;;;5.83;30.73;102710.91;5074055;28;20047;-63
2022/03/11 10:20:19;;;;;;;10.07;4.95;;;;;;;5.92;30.65;102703.44;5061705;28;20029;-64
2022/03/11 10:22:47;;;;;;;11.70;4.88;;;;;;;5.95;30.52;102702.66;5063071;28;20072;-64
2022/03/11 10:25:24;;;;;;;9.40;4.60;;;;;;;6.01;30.08;102708.97;5082128;28;20467;-63
2022/03/11 10:28:03;;;;;;;7.90;4.55;;;;;;;6.07;29.51;102709.19;5085805;28;20090;-64
2022/03/11 10:30:31;;;;;;;8.82;4.63;;;;;;;6.11;29.61;102698.00;5063804;28;20035;-64
2022/03/11 10:32:59;;;;;;;9.48;5.03;;;;;;;6.25;30.25;102702.78;5083459;28;20037;-64
2022/03/11 10:35:47;;;;;;;9.35;4.43;;;;;;;6.30;29.25;102696.88;5072210;28;20036;-64
2022/03/11 10:38:21;;;;;;;9.70;4.65;;;;;;;6.30;29.35;102712.53;5090022;28;20032;-63
2022/03/11 10:40:52;;;;;;;9.13;4.38;;;;;;;6.42;30.13;102709.44;5085749;28;20538;-64
2022/03/11 10:43:20;;;;;;;8.60;4.22;;;;;;;6.47;30.01;102693.94;5070520;28;20043;-63
2022/03/11 10:45:53;;;;;;;9.63;4.43;;;;;;;6.54;29.42;102691.56;5070797;28;20071;-63
2022/03/11 10:48:42;;;;;;;8.25;4.32;;;;;;;6.55;27.17;102698.56;5073356;28;20180;-62
2022/03/11 10:51:31;;;;;;;16.85;6.32;;;;;;;6.59;28.90;102694.34;5073258;28;20052;-62
2022/03/11 10:53:57;;;;;;;10.18;5.03;;;;;;;6.62;29.04;102686.56;5073407;28;20032;-64
2022/03/11 10:56:29;;;;;;;11.35;5.70;;;;;;;6.62;29.03;102689.19;5071824;28;20552;-62
2022/03/11 10:58:58;;;;;;;10.75;5.60;;;;;;;6.63;29.18;102673.56;5072165;28;20064;-62
2022/03/11 11:01:37;;;;;;;17.65;7.55;;;;;;;6.68;27.76;102680.66;5055087;28;20396;-62
2022/03/11 11:04:07;;;;;;;15.30;7.18;;;;;;;6.71;28.67;102679.03;5072174;28;20475;-63
2022/03/11 11:06:32;;;;;;;15.48;6.95;;;;;;;6.74;28.64;102676.50;5071970;28;20036;-64
2022/03/11 11:08:59;;;;;;;14.98;6.85;;;;;;;6.73;28.36;102682.56;5068578;28;20029;-64
2022/03/11 11:11:25;;;;;;;19.97;9.57;;;;;;;6.74;28.48;102667.78;5051737;28;20481;-64
2022/03/11 11:13:51;;;;;;;16.05;7.85;;;;;;;6.77;28.42;102667.88;5053147;28;20175;-64